Time;durP1;ratioP1;P1;durP2;ratioP2;P2;SDS_P1;SDS_P2;PMS_P1;PMS_P2;Temp;Humidity;BMP_temperature;BMP_pressure;BME280_temperature;BME280_humidity;BME280_pressure;Samples;Min_cycle;Max_cycle;Signal;HPM_P1;HPM_P2
2021/07/14 00:00:11;;;;;;;10.37;9.60;;;;;;;21.12;100.00;96030.31;5053115;28;20208;-82
2021/07/14 00:02:40;;;;;;;10.10;9.30;;;;;;;21.12;100.00;96030.31;5053185;28;20268;-82
2021/07/14 00:05:09;;;;;;;10.30;9.37;;;;;;;21.14;100.00;96027.44;5052999;28;20229;-82
2021/07/14 00:07:36;;;;;;;10.70;9.80;;;;;;;21.32;100.00;96037.19;5053155;28;20244;-82
2021/07/14 00:10:08;;;;;;;9.50;8.70;;;;;;;21.32;100.00;96039.88;5052795;28;20208;-83
2021/07/14 00:12:44;;;;;;;11.17;9.80;;;;;;;21.47;100.00;96042.91;5053313;28;20216;-83
2021/07/14 00:23:31;;;;;;;9.83;9.03;;;;;;;21.45;100.00;96046.88;5053140;28;20212;-83
2021/07/14 00:25:59;;;;;;;9.93;9.07;;;;;;;21.28;100.00;96039.53;5052817;28;20198;-83
2021/07/14 00:28:27;;;;;;;10.50;9.43;;;;;;;21.17;100.00;96026.16;5052378;28;20741;-83
2021/07/14 00:30:56;;;;;;;10.00;9.00;;;;;;;21.12;100.00;96022.28;5052393;28;20608;-83
2021/07/14 00:33:26;;;;;;;9.47;8.67;;;;;;;21.20;100.00;96017.66;5052474;28;20198;-83
2021/07/14 00:35:54;;;;;;;10.27;9.33;;;;;;;21.10;100.00;96021.72;5052606;28;20196;-83
2021/07/14 00:38:21;;;;;;;9.43;8.70;;;;;;;20.98;100.00;96012.88;5052371;28;20675;-82
2021/07/14 00:40:49;;;;;;;12.07;8.77;;;;;;;21.04;100.00;96013.81;5052194;28;20194;-83
2021/07/14 00:43:16;;;;;;;10.90;9.37;;;;;;;21.13;100.00;96015.13;5052187;28;20222;-82
2021/07/14 00:45:44;;;;;;;9.30;8.53;;;;;;;21.04;100.00;96011.16;5052291;28;20255;-82
2021/07/14 00:48:11;;;;;;;9.70;8.63;;;;;;;21.06;100.00;96011.72;5052172;28;20205;-82
2021/07/14 00:50:40;;;;;;;9.87;9.10;;;;;;;21.19;100.00;96008.00;5052326;28;20289;-82
2021/07/14 00:53:08;;;;;;;9.40;8.70;;;;;;;21.20;100.00;96026.50;5052295;28;20198;-83
2021/07/14 00:55:35;;;;;;;9.37;8.57;;;;;;;21.12;100.00;96027.63;5051674;28;20230;-83
2021/07/14 00:58:03;;;;;;;9.03;8.33;;;;;;;20.90;100.00;96021.22;5052024;28;20236;-82
2021/07/14 01:00:30;;;;;;;9.97;8.93;;;;;;;20.76;100.00;96009.94;5051802;28;20289;-83
2021/07/14 01:02:57;;;;;;;9.73;9.00;;;;;;;21.14;100.00;96025.56;5051909;28;20312;-82
2021/07/14 01:05:32;;;;;;;9.23;8.33;;;;;;;20.98;100.00;96030.75;5052024;28;20678;-82
2021/07/14 01:08:07;;;;;;;9.87;8.50;;;;;;;20.69;100.00;96027.09;5051926;28;20647;-82
2021/07/14 01:10:39;;;;;;;9.90;9.00;;;;;;;20.49;100.00;96006.00;5052147;28;20273;-82
2021/07/14 01:13:11;;;;;;;11.00;9.90;;;;;;;20.79;100.00;96011.34;5052141;28;20251;-82
2021/07/14 01:15:44;;;;;;;10.97;9.97;;;;;;;20.97;100.00;96021.94;5052198;28;20268;-82
2021/07/14 01:18:20;;;;;;;10.13;9.13;;;;;;;20.79;100.00;96011.34;5051744;28;20194;-82
2021/07/14 01:20:54;;;;;;;9.70;8.87;;;;;;;20.83;100.00;96002.63;5051606;28;20182;-82
2021/07/14 01:23:31;;;;;;;10.57;9.57;;;;;;;20.88;100.00;96001.94;5052059;28;20214;-82
2021/07/14 01:26:11;;;;;;;10.80;10.00;;;;;;;20.53;100.00;95994.66;5051832;28;20185;-83
2021/07/14 01:28:43;;;;;;;10.63;9.53;;;;;;;20.27;100.00;95971.00;5051421;28;20188;-82
2021/07/14 01:31:14;;;;;;;10.77;9.97;;;;;;;20.37;100.00;95963.25;5052077;28;20197;-82
2021/07/14 01:33:43;;;;;;;10.67;9.83;;;;;;;20.47;100.00;95968.88;5051663;28;20776;-83
2021/07/14 01:36:15;;;;;;;10.57;9.67;;;;;;;20.62;100.00;95985.28;5051889;28;20292;-83
2021/07/14 01:38:45;;;;;;;10.20;9.40;;;;;;;20.52;100.00;95995.72;5051351;28;20186;-82
2021/07/14 01:41:15;;;;;;;9.93;9.13;;;;;;;20.49;100.00;95995.31;5051706;28;20185;-82
2021/07/14 01:43:48;;;;;;;10.77;9.77;;;;;;;20.42;100.00;95990.06;5051353;28;20279;-82
2021/07/14 01:46:16;;;;;;;10.27;9.27;;;;;;;20.32;100.00;95976.47;5052187;28;20178;-82
2021/07/14 01:48:46;;;;;;;9.03;8.33;;;;;;;20.39;100.00;95972.66;5051110;28;20722;-82
2021/07/14 01:51:15;;;;;;;9.80;9.10;;;;;;;20.58;100.00;95986.78;5051631;28;20659;-82
2021/07/14 01:53:45;;;;;;;10.83;9.83;;;;;;;20.57;100.00;95987.81;5051166;28;20238;-82
2021/07/14 01:56:13;;;;;;;10.97;10.07;;;;;;;20.55;100.00;95991.78;5051350;28;20802;-82
2021/07/14 01:58:45;;;;;;;9.60;8.70;;;;;;;20.63;100.00;95997.59;5051069;28;20233;-82
2021/07/14 02:01:17;;;;;;;11.93;10.87;;;;;;;20.38;100.00;95992.38;5051517;28;20196;-83
2021/07/14 02:04:29;;;;;;;9.87;8.97;;;;;;;20.41;100.00;95975.09;5051196;28;20209;-83
2021/07/14 02:06:45;;;;;;;10.03;9.03;;;;;;;20.40;100.00;95989.47;5051230;28;20198;-83
2021/07/14 02:09:13;;;;;;;10.73;9.73;;;;;;;20.35;100.00;95992.84;5055115;28;20284;-83
2021/07/14 02:11:44;;;;;;;11.30;10.20;;;;;;;20.51;100.00;95993.28;5055401;28;20209;-83
2021/07/14 02:14:18;;;;;;;11.50;10.30;;;;;;;20.29;100.00;95987.59;5055065;28;20244;-83
2021/07/14 02:16:48;;;;;;;10.47;9.57;;;;;;;20.32;100.00;95976.47;5055269;28;20181;-83
2021/07/14 02:19:18;;;;;;;9.80;9.00;;;;;;;20.26;100.00;95998.69;5054734;28;20244;-82
2021/07/14 02:21:45;;;;;;;10.47;9.57;;;;;;;20.02;100.00;95981.78;5055194;28;20232;-82
2021/07/14 02:24:14;;;;;;;10.03;9.23;;;;;;;19.88;100.00;95981.97;5049554;28;20313;-82
2021/07/14 02:26:43;;;;;;;10.70;9.70;;;;;;;19.78;100.00;95960.34;5042136;28;20206;-82
2021/07/14 02:29:11;;;;;;;10.17;9.37;;;;;;;19.75;100.00;95965.31;5054598;28;20198;-82
2021/07/14 02:31:39;;;;;;;9.70;8.80;;;;;;;19.86;100.00;95970.69;5048677;28;20293;-82
2021/07/14 02:34:09;;;;;;;11.20;10.20;;;;;;;19.98;100.00;95981.41;5041643;28;20209;-82
2021/07/14 02:36:38;;;;;;;11.03;10.13;;;;;;;20.14;100.00;95986.13;5035260;28;20206;-82
2021/07/14 02:39:08;;;;;;;10.07;9.20;;;;;;;20.04;100.00;95991.19;5034471;28;20301;-82
2021/07/14 02:41:41;;;;;;;10.33;9.53;;;;;;;20.02;100.00;96003.97;5035104;28;20293;-82
2021/07/14 02:44:10;;;;;;;10.40;9.70;;;;;;;19.95;100.00;95997.84;5034685;28;20302;-83
2021/07/14 02:46:43;;;;;;;11.33;10.43;;;;;;;20.02;100.00;95971.94;5036976;28;20198;-82
2021/07/14 02:49:13;;;;;;;11.50;10.40;;;;;;;19.92;100.00;95974.31;5054388;28;20188;-82
2021/07/14 02:51:44;;;;;;;11.57;10.60;;;;;;;20.06;100.00;95975.78;5055182;28;20206;-83
2021/07/14 02:54:18;;;;;;;10.47;9.53;;;;;;;19.83;100.00;95975.66;5054557;28;20367;-83
2021/07/14 02:56:48;;;;;;;11.27;10.27;;;;;;;19.87;100.00;95968.84;5045399;28;20230;-83
2021/07/14 02:59:19;;;;;;;11.17;10.07;;;;;;;19.64;100.00;95964.19;5044557;28;20206;-82
2021/07/14 03:01:49;;;;;;;10.83;9.83;;;;;;;19.60;100.00;95963.78;5052638;28;20190;-84
2021/07/14 03:04:17;;;;;;;11.03;10.03;;;;;;;19.81;100.00;95959.06;5050464;28;20606;-86
2021/07/14 03:06:46;;;;;;;10.90;9.90;;;;;;;20.01;100.00;95988.97;5052728;28;20284;-85
2021/07/14 03:09:16;;;;;;;10.23;9.23;;;;;;;19.72;100.00;95987.91;5053715;28;20212;-86
2021/07/14 03:11:44;;;;;;;9.93;9.07;;;;;;;19.71;100.00;95989.75;5053953;28;20732;-83
2021/07/14 03:14:14;;;;;;;10.40;9.40;;;;;;;19.72;100.00;95979.91;5044400;28;20450;-83
2021/07/14 03:16:43;;;;;;;10.20;9.30;;;;;;;19.78;100.00;95978.16;5034020;28;20207;-83
2021/07/14 03:19:13;;;;;;;16.43;10.20;;;;;;;19.74;100.00;95974.31;5033942;28;20739;-83
2021/07/14 03:21:41;;;;;;;11.93;10.63;;;;;;;19.70;100.00;95981.97;5034085;28;20245;-83
2021/07/14 03:24:09;;;;;;;11.33;10.43;;;;;;;19.57;100.00;95966.91;5034708;28;20222;-84
2021/07/14 03:26:39;;;;;;;11.33;10.20;;;;;;;19.45;100.00;95947.34;5032813;28;20198;-83
2021/07/14 03:29:08;;;;;;;11.27;10.27;;;;;;;19.39;100.00;95926.91;5039920;28;20294;-83
2021/07/14 03:31:36;;;;;;;11.03;10.03;;;;;;;19.60;100.00;95942.44;5046392;28;20298;-83
2021/07/14 03:34:03;;;;;;;11.10;10.20;;;;;;;19.58;100.00;95957.06;5033004;28;20687;-83
2021/07/14 03:36:33;;;;;;;11.47;10.57;;;;;;;19.66;100.00;95965.59;5035262;28;20201;-84
2021/07/14 03:39:01;;;;;;;10.77;9.87;;;;;;;19.65;100.00;95971.97;5032636;28;20203;-83
2021/07/14 03:41:29;;;;;;;11.93;10.77;;;;;;;19.54;100.00;95962.03;5035235;28;20301;-83
2021/07/14 03:43:57;;;;;;;10.47;9.57;;;;;;;19.64;100.00;95986.34;5052306;28;20308;-82
2021/07/14 03:46:26;;;;;;;11.23;10.23;;;;;;;19.71;100.00;95991.59;5050874;28;20203;-83
2021/07/14 03:48:54;;;;;;;11.10;10.00;;;;;;;19.88;100.00;96002.47;5032777;28;20252;-83
2021/07/14 03:51:24;;;;;;;11.57;10.47;;;;;;;19.88;100.00;96003.31;5032258;28;20285;-83
2021/07/14 03:53:53;;;;;;;11.33;10.33;;;;;;;19.86;100.00;95970.69;5031974;28;20226;-83
2021/07/14 03:56:24;;;;;;;10.77;9.90;;;;;;;19.76;100.00;95945.59;5031995;28;20321;-83
2021/07/14 03:58:52;;;;;;;11.60;10.50;;;;;;;19.82;100.00;95928.72;5037478;28;20721;-83
2021/07/14 04:01:20;;;;;;;9.73;9.03;;;;;;;20.07;100.00;95955.25;5053006;28;20678;-83
2021/07/14 04:03:48;;;;;;;12.43;10.00;;;;;;;19.97;100.00;95960.31;5041334;28;20699;-80
2021/07/14 04:06:16;;;;;;;11.10;10.03;;;;;;;19.83;100.00;95968.47;5033503;28;20198;-80
2021/07/14 04:08:45;;;;;;;10.83;9.83;;;;;;;19.84;100.00;95986.09;5050612;28;20206;-80
2021/07/14 04:11:15;;;;;;;15.23;10.40;;;;;;;19.78;100.00;95996.84;5045624;28;20210;-79
2021/07/14 04:13:43;;;;;;;10.40;9.43;;;;;;;19.87;100.00;96000.84;5052042;28;20260;-79
2021/07/14 04:16:11;;;;;;;11.00;9.90;;;;;;;19.86;100.00;95981.38;5052995;28;20201;-79
2021/07/14 04:18:40;;;;;;;11.03;10.03;;;;;;;19.93;100.00;95979.44;5052510;28;20233;-79
2021/07/14 04:21:07;;;;;;;10.83;9.87;;;;;;;19.87;100.00;95974.97;5053222;28;20198;-80
2021/07/14 04:23:35;;;;;;;11.80;10.27;;;;;;;19.71;100.00;95963.09;5052568;28;20222;-79
2021/07/14 04:26:02;;;;;;;11.77;10.73;;;;;;;19.73;100.00;95954.03;5052757;28;20237;-79
2021/07/14 04:28:32;;;;;;;11.90;11.00;;;;;;;19.85;100.00;95946.94;5052341;28;20288;-79
2021/07/14 04:30:59;;;;;;;11.40;10.30;;;;;;;19.63;100.00;95941.22;5052052;28;20194;-79
2021/07/14 04:33:27;;;;;;;12.17;11.13;;;;;;;19.54;100.00;95913.22;5052475;28;20620;-79
2021/07/14 04:35:54;;;;;;;11.07;10.10;;;;;;;19.75;100.00;95922.66;5052509;28;20697;-80
2021/07/14 04:38:22;;;;;;;10.90;9.90;;;;;;;19.93;100.00;95943.94;5052206;28;20729;-79
2021/07/14 04:40:50;;;;;;;18.03;11.33;;;;;;;20.08;100.00;96020.91;5052813;28;20194;-79
2021/07/14 04:43:17;;;;;;;11.73;10.63;;;;;;;20.15;100.00;96032.31;5052238;28;20221;-79
2021/07/14 04:45:46;;;;;;;10.73;9.83;;;;;;;20.22;100.00;96058.91;5051951;28;20200;-80
2021/07/14 04:48:13;;;;;;;10.47;9.57;;;;;;;20.37;100.00;96078.03;5052220;28;20213;-80
2021/07/14 04:50:40;;;;;;;10.70;9.80;;;;;;;20.30;100.00;96115.47;5052447;28;20732;-80
2021/07/14 04:53:08;;;;;;;12.10;10.90;;;;;;;20.38;100.00;96146.38;5052251;28;20284;-79
2021/07/14 04:55:35;;;;;;;12.53;11.33;;;;;;;20.50;100.00;96160.63;5052202;28;20324;-79
2021/07/14 04:58:03;;;;;;;11.60;10.57;;;;;;;20.56;100.00;96169.59;5052188;28;20229;-79
2021/07/14 05:00:30;;;;;;;12.23;11.20;;;;;;;20.59;100.00;96148.63;5052519;28;20554;-79
2021/07/14 05:02:59;;;;;;;11.73;10.53;;;;;;;20.71;100.00;96161.22;5051917;28;20207;-79
2021/07/14 05:05:26;;;;;;;11.60;10.50;;;;;;;20.82;100.00;96179.16;5052213;28;20244;-79
2021/07/14 05:07:54;;;;;;;11.63;10.63;;;;;;;20.92;100.00;96200.81;5051951;28;20201;-80
2021/07/14 05:10:24;;;;;;;10.73;9.63;;;;;;;21.05;100.00;96223.84;5052193;28;20197;-80
2021/07/14 05:12:52;;;;;;;10.07;9.30;;;;;;;21.12;100.00;96217.38;5052037;28;20240;-80
2021/07/14 05:15:19;;;;;;;10.20;9.47;;;;;;;21.28;100.00;96215.94;5052075;28;20198;-79
2021/07/14 05:17:47;;;;;;;9.93;9.07;;;;;;;21.34;100.00;96219.59;5051524;28;20201;-79
2021/07/14 05:20:17;;;;;;;10.00;9.00;;;;;;;21.45;100.00;96221.50;5051941;28;20296;-79
2021/07/14 05:22:44;;;;;;;10.50;9.57;;;;;;;21.60;100.00;96227.22;5051854;28;20197;-79
2021/07/14 05:25:13;;;;;;;11.27;10.13;;;;;;;21.70;100.00;96261.44;5051919;28;20247;-80
2021/07/14 05:27:40;;;;;;;10.50;9.60;;;;;;;21.92;100.00;96280.44;5052173;28;20202;-80
2021/07/14 05:30:09;;;;;;;9.77;9.00;;;;;;;22.05;100.00;96274.88;5051481;28;20204;-80
2021/07/14 05:32:36;;;;;;;11.67;10.70;;;;;;;22.16;100.00;96285.84;5051730;28;20200;-80
2021/07/14 05:35:05;;;;;;;9.77;8.77;;;;;;;22.29;100.00;96297.16;5051636;28;20229;-80
2021/07/14 05:37:34;;;;;;;9.97;9.07;;;;;;;22.43;100.00;96307.66;5051703;28;20251;-80
2021/07/14 05:40:01;;;;;;;9.30;8.50;;;;;;;22.63;100.00;96316.16;5051565;28;20663;-79
2021/07/14 05:42:29;;;;;;;9.60;8.70;;;;;;;22.86;100.00;96326.06;5053047;28;20196;-79
2021/07/14 05:44:56;;;;;;;8.90;8.10;;;;;;;23.04;100.00;96340.41;5056057;28;20668;-79
2021/07/14 05:47:24;;;;;;;8.90;8.10;;;;;;;23.27;100.00;96348.38;5056104;28;20216;-80
2021/07/14 05:49:51;;;;;;;12.23;8.67;;;;;;;23.37;100.00;96356.63;5055881;28;20194;-80
2021/07/14 05:52:18;;;;;;;9.40;7.70;;;;;;;23.54;100.00;96361.25;5056082;28;20281;-81
2021/07/14 05:54:47;;;;;;;8.50;7.67;;;;;;;23.59;100.00;96362.19;5053810;28;20221;-80
2021/07/14 05:57:14;;;;;;;8.20;7.40;;;;;;;23.73;100.00;96370.81;5054440;28;20186;-80
2021/07/14 05:59:42;;;;;;;9.03;8.23;;;;;;;23.86;100.00;96370.50;5055609;28;20560;-80
2021/07/14 06:02:09;;;;;;;9.17;7.93;;;;;;;23.92;100.00;96369.53;5055428;28;20246;-80
2021/07/14 06:04:37;;;;;;;9.13;8.33;;;;;;;24.10;100.00;96381.94;5055820;28;20264;-80
2021/07/14 06:07:06;;;;;;;9.17;8.33;;;;;;;24.22;100.00;96381.09;5055853;28;20267;-79
2021/07/14 06:09:34;;;;;;;9.43;8.73;;;;;;;24.40;100.00;96387.06;5055673;28;20201;-80
2021/07/14 06:12:03;;;;;;;8.60;7.90;;;;;;;24.58;100.00;96387.88;5055687;28;20198;-79
2021/07/14 06:14:30;;;;;;;8.07;7.17;;;;;;;24.81;100.00;96400.34;5055239;28;20689;-80
2021/07/14 06:16:57;;;;;;;11.33;8.07;;;;;;;24.83;100.00;96406.28;5055368;28;20576;-80
2021/07/14 06:19:25;;;;;;;8.60;7.83;;;;;;;24.92;100.00;96411.00;5055132;28;20193;-80
2021/07/14 06:21:53;;;;;;;7.80;7.10;;;;;;;25.00;100.00;96428.59;5054918;28;20205;-80
2021/07/14 06:24:20;;;;;;;8.73;7.93;;;;;;;25.12;100.00;96426.66;5055077;28;20317;-80
2021/07/14 06:26:49;;;;;;;8.20;7.43;;;;;;;25.27;100.00;96428.75;5055253;28;20202;-80
2021/07/14 06:29:17;;;;;;;8.27;7.33;;;;;;;25.41;100.00;96433.75;5054982;28;20284;-80
2021/07/14 06:31:46;;;;;;;9.93;7.47;;;;;;;25.54;100.00;96438.78;5055090;28;20202;-80
2021/07/14 06:34:13;;;;;;;8.07;7.47;;;;;;;25.60;100.00;96435.09;5055178;28;20201;-80
2021/07/14 06:36:41;;;;;;;8.77;7.43;;;;;;;25.73;100.00;96426.63;5055112;28;20666;-80
2021/07/14 06:39:08;;;;;;;8.37;7.50;;;;;;;26.04;100.00;96432.41;5055296;28;20193;-80
2021/07/14 06:41:36;;;;;;;7.30;6.60;;;;;;;26.28;100.00;96438.31;5055064;28;20201;-80
2021/07/14 06:44:04;;;;;;;7.80;7.10;;;;;;;26.37;100.00;96436.81;5054891;28;20694;-80
2021/07/14 06:46:32;;;;;;;8.57;6.90;;;;;;;26.47;100.00;96436.13;5055006;28;20285;-80
2021/07/14 06:49:01;;;;;;;8.57;7.50;;;;;;;26.72;100.00;96439.03;5054715;28;20747;-80
2021/07/14 06:51:29;;;;;;;11.52;8.02;;;;;;;27.02;100.00;96427.69;5054480;28;20198;-80
2021/07/14 06:53:56;;;;;;;8.60;7.28;;;;;;;27.26;100.00;96432.69;5053907;28;20559;-80
2021/07/14 06:56:24;;;;;;;8.38;7.63;;;;;;;27.22;100.00;96434.28;5054479;28;20265;-80
2021/07/14 06:58:51;;;;;;;8.07;7.50;;;;;;;27.31;100.00;96429.22;5054169;28;20226;-80
2021/07/14 07:01:20;;;;;;;9.02;7.57;;;;;;;27.59;100.00;96425.31;5054732;28;20202;-80
2021/07/14 07:03:49;;;;;;;7.32;6.63;;;;;;;27.95;100.00;96429.00;5054162;28;20218;-80
2021/07/14 07:06:16;;;;;;;8.25;7.45;;;;;;;28.16;100.00;96424.47;5054380;28;20288;-81
2021/07/14 07:08:43;;;;;;;13.80;8.00;;;;;;;28.12;100.00;96431.47;5054225;28;20206;-81
2021/07/14 07:11:11;;;;;;;8.85;7.55;;;;;;;28.28;100.00;96433.16;5054315;28;20666;-81
2021/07/14 07:13:38;;;;;;;8.00;7.20;;;;;;;28.45;100.00;96441.06;5054247;28;20667;-81
2021/07/14 07:16:06;;;;;;;10.32;7.18;;;;;;;28.68;100.00;96447.81;5054170;28;20241;-81
2021/07/14 07:18:33;;;;;;;8.55;7.75;;;;;;;29.02;100.00;96440.00;5053752;28;20237;-81
2021/07/14 07:21:02;;;;;;;7.70;7.00;;;;;;;28.76;100.00;96449.19;5054104;28;20244;-81
2021/07/14 07:23:29;;;;;;;7.13;6.60;;;;;;;28.91;100.00;96451.88;5053778;28;20237;-81
2021/07/14 07:25:58;;;;;;;7.57;6.78;;;;;;;29.17;100.00;96449.22;5054278;28;20229;-81
2021/07/14 07:28:29;;;;;;;7.03;6.22;;;;;;;29.27;100.00;96451.88;5053553;28;20202;-81
2021/07/14 07:30:56;;;;;;;7.13;6.47;;;;;;;29.44;100.00;96465.91;5053968;28;20193;-81
2021/07/14 07:33:24;;;;;;;7.95;7.15;;;;;;;29.67;100.00;96466.44;5053743;28;20288;-81
2021/07/14 07:35:51;;;;;;;6.90;6.28;;;;;;;29.91;100.00;96475.56;5053837;28;20233;-81
2021/07/14 07:38:20;;;;;;;6.55;5.95;;;;;;;30.07;100.00;96471.72;5053632;28;20208;-81
2021/07/14 07:40:51;;;;;;;6.65;6.07;;;;;;;29.76;100.00;96472.94;5053826;28;20248;-81
2021/07/14 07:43:19;;;;;;;6.95;6.35;;;;;;;29.90;100.00;96462.31;5053916;28;20190;-81
2021/07/14 07:45:46;;;;;;;6.70;6.20;;;;;;;29.95;100.00;96476.63;5053885;28;20217;-81
2021/07/14 07:48:14;;;;;;;6.88;6.20;;;;;;;30.22;100.00;96472.75;5053419;28;20685;-81
2021/07/14 07:50:41;;;;;;;7.03;6.32;;;;;;;30.45;100.00;96469.38;5053546;28;20251;-81
2021/07/14 07:53:08;;;;;;;6.57;5.90;;;;;;;30.59;100.00;96464.16;5053438;28;20732;-81
2021/07/14 07:55:37;;;;;;;6.28;5.88;;;;;;;30.46;100.00;96464.75;5053455;28;20269;-81
2021/07/14 07:58:05;;;;;;;6.75;6.15;;;;;;;30.35;100.00;96466.72;5053705;28;20265;-81
2021/07/14 08:00:32;;;;;;;9.90;7.60;;;;;;;30.04;100.00;96464.16;5053401;28;20201;-81
2021/07/14 08:02:59;;;;;;;7.72;6.97;;;;;;;30.05;100.00;96462.25;5053290;28;20229;-81
2021/07/14 08:05:28;;;;;;;7.40;6.63;;;;;;;30.29;100.00;96462.41;5052393;28;20232;-82
2021/07/14 08:07:56;;;;;;;7.22;6.53;;;;;;;30.56;100.00;96476.34;5052903;28;20717;-81
2021/07/14 08:10:23;;;;;;;8.82;7.97;;;;;;;30.64;100.00;96463.28;5053320;28;20202;-82
2021/07/14 08:12:52;;;;;;;9.57;8.60;;;;;;;30.36;100.00;96446.66;5053349;28;20381;-82
2021/07/14 08:15:20;;;;;;;8.27;7.57;;;;;;;30.49;100.00;96450.66;5053310;28;20226;-82
2021/07/14 08:17:48;;;;;;;7.75;7.22;;;;;;;30.35;100.00;96461.31;5053032;28;20236;-82
2021/07/14 08:20:16;;;;;;;9.38;8.43;;;;;;;30.75;100.00;96443.13;5052944;28;20750;-82
2021/07/14 08:22:44;;;;;;;9.68;8.48;;;;;;;30.57;100.00;96441.91;5053011;28;20591;-82
2021/07/14 08:25:13;;;;;;;8.68;7.97;;;;;;;30.66;100.00;96450.25;5053041;28;20248;-82
2021/07/14 08:27:41;;;;;;;9.05;8.18;;;;;;;30.65;100.00;96440.47;5052650;28;20316;-82
2021/07/14 08:30:12;;;;;;;9.32;8.52;;;;;;;30.46;100.00;96452.00;5053204;28;20197;-82
2021/07/14 08:32:40;;;;;;;9.32;8.35;;;;;;;29.73;100.00;96458.03;5052674;28;20190;-82
2021/07/14 08:35:10;;;;;;;9.80;9.00;;;;;;;29.69;100.00;96437.22;5052872;28;20194;-82
2021/07/14 08:37:37;;;;;;;10.07;9.27;;;;;;;30.23;100.00;96426.38;5052368;28;20197;-82
2021/07/14 08:40:07;;;;;;;11.73;10.07;;;;;;;30.69;100.00;96430.69;5052528;28;20210;-82
2021/07/14 08:42:36;;;;;;;10.45;9.63;;;;;;;30.73;100.00;96426.34;5052535;28;20237;-82
2021/07/14 08:45:05;;;;;;;9.50;8.68;;;;;;;30.49;100.00;96432.47;5052350;28;20605;-82
2021/07/14 08:47:34;;;;;;;13.52;10.30;;;;;;;30.22;100.00;96426.69;5052486;28;20227;-82
2021/07/14 08:50:02;;;;;;;11.05;9.65;;;;;;;30.42;100.00;96431.16;5052535;28;20251;-82
2021/07/14 08:52:30;;;;;;;10.73;9.70;;;;;;;31.03;100.00;96434.22;5052713;28;20270;-82
2021/07/14 08:54:58;;;;;;;9.68;8.98;;;;;;;30.72;100.00;96435.53;5051652;28;20321;-83
2021/07/14 08:57:25;;;;;;;10.05;9.13;;;;;;;30.12;100.00;96435.63;5052370;28;20186;-82
2021/07/14 08:59:52;;;;;;;9.88;9.07;;;;;;;30.32;100.00;96418.47;5052364;28;20301;-82
2021/07/14 09:02:20;;;;;;;9.65;8.82;;;;;;;30.85;100.00;96420.56;5052559;28;20291;-82
2021/07/14 09:04:48;;;;;;;12.68;9.50;;;;;;;30.78;100.00;96427.13;5051960;28;20222;-82
2021/07/14 09:07:16;;;;;;;9.15;8.45;;;;;;;30.78;100.00;96423.59;5051933;28;20198;-83
2021/07/14 09:09:44;;;;;;;9.13;8.43;;;;;;;30.85;100.00;96432.22;5052299;28;20201;-82
2021/07/14 09:12:13;;;;;;;8.88;8.13;;;;;;;30.92;100.00;96440.03;5052080;28;20237;-82
2021/07/14 09:14:43;;;;;;;8.65;8.05;;;;;;;30.50;100.00;96441.41;5051908;28;20190;-82
2021/07/14 09:17:27;;;;;;;14.23;9.45;;;;;;;30.18;100.00;96431.84;5051898;28;20194;-82
2021/07/14 09:20:09;;;;;;;9.05;8.15;;;;;;;30.79;100.00;96436.06;5052016;28;20185;-82
2021/07/14 09:22:37;;;;;;;8.88;7.97;;;;;;;30.87;100.00;96440.91;5052018;28;20240;-82
2021/07/14 09:25:12;;;;;;;9.95;9.20;;;;;;;30.88;100.00;96439.00;5052263;28;20221;-80
2021/07/14 09:27:58;;;;;;;9.73;8.90;;;;;;;30.81;100.00;96425.75;5034253;28;20259;-80
2021/07/14 09:30:27;;;;;;;10.02;9.02;;;;;;;30.75;100.00;96435.81;5051890;28;20186;-82
2021/07/14 09:32:56;;;;;;;9.05;8.35;;;;;;;30.89;100.00;96429.75;5051694;28;20201;-81
2021/07/14 09:35:32;;;;;;;10.43;9.48;;;;;;;30.77;100.00;96430.13;5051983;28;20197;-81
2021/07/14 09:38:04;;;;;;;10.43;9.32;;;;;;;30.64;100.00;96438.88;5051627;28;20186;-81
2021/07/14 09:40:31;;;;;;;9.45;8.80;;;;;;;30.47;100.00;96434.63;5051867;28;20189;-82
2021/07/14 09:43:04;;;;;;;9.07;8.35;;;;;;;30.39;100.00;96434.44;5051648;28;20647;-82
2021/07/14 09:45:36;;;;;;;10.35;9.40;;;;;;;30.19;100.00;96427.22;5051704;28;20202;-82
2021/07/14 09:48:04;;;;;;;10.70;9.90;;;;;;;30.06;100.00;96434.84;5051838;28;20227;-81
2021/07/14 09:50:34;;;;;;;10.80;9.90;;;;;;;29.92;100.00;96427.59;5051514;28;20194;-81
2021/07/14 09:53:03;;;;;;;9.73;8.93;;;;;;;30.06;100.00;96431.34;5051458;28;20204;-82
2021/07/14 09:55:31;;;;;;;11.63;8.93;;;;;;;29.89;100.00;96439.81;5051702;28;20230;-82
2021/07/14 09:58:13;;;;;;;10.50;8.73;;;;;;;29.63;100.00;96436.41;5051220;28;20255;-82
2021/07/14 10:00:46;;;;;;;9.98;9.05;;;;;;;29.93;100.00;96434.63;5051921;28;20284;-81
2021/07/14 10:03:29;;;;;;;9.52;8.80;;;;;;;29.96;100.00;96424.09;5051617;28;20221;-81
2021/07/14 10:06:09;;;;;;;11.88;9.38;;;;;;;30.35;100.00;96428.78;5051290;28;20594;-81
2021/07/14 10:08:38;;;;;;;9.80;8.93;;;;;;;30.45;100.00;96436.03;5051299;28;20193;-81
2021/07/14 10:11:11;;;;;;;10.05;9.00;;;;;;;30.61;100.00;96431.31;5051890;28;20202;-82
2021/07/14 10:13:39;;;;;;;9.70;8.77;;;;;;;30.27;100.00;96430.19;5051399;28;20220;-81
2021/07/14 10:16:07;;;;;;;9.85;9.15;;;;;;;30.49;100.00;96424.34;5051307;28;20201;-82
2021/07/14 10:18:35;;;;;;;10.38;9.30;;;;;;;30.75;100.00;96426.84;5051684;28;20202;-82
2021/07/14 10:21:05;;;;;;;9.88;8.95;;;;;;;30.48;100.00;96428.16;5051846;28;20194;-82
2021/07/14 10:23:33;;;;;;;10.52;9.55;;;;;;;30.12;100.00;96426.69;5051843;28;20272;-82
2021/07/14 10:26:01;;;;;;;10.18;9.25;;;;;;;30.01;100.00;96415.91;5051114;28;20713;-82
2021/07/14 10:28:31;;;;;;;10.57;9.68;;;;;;;30.00;100.00;96417.00;5052570;28;20197;-82
2021/07/14 10:30:59;;;;;;;10.27;9.48;;;;;;;30.23;100.00;96418.25;5055123;28;20585;-82
2021/07/14 10:33:32;;;;;;;9.90;9.02;;;;;;;30.07;100.00;96416.72;5055077;28;20223;-81
2021/07/14 10:36:09;;;;;;;9.52;8.82;;;;;;;30.15;100.00;96416.13;5055163;28;20182;-82
2021/07/14 10:38:39;;;;;;;9.85;8.68;;;;;;;29.72;100.00;96423.09;5054771;28;20198;-82
2021/07/14 10:41:07;;;;;;;9.95;8.93;;;;;;;29.74;100.00;96410.09;5055276;28;20293;-82
2021/07/14 10:43:35;;;;;;;9.50;8.13;;;;;;;29.79;100.00;96410.03;5054591;28;20208;-82
2021/07/14 10:46:03;;;;;;;9.75;8.57;;;;;;;30.42;100.00;96421.13;5054737;28;20283;-82
2021/07/14 10:48:30;;;;;;;9.98;8.75;;;;;;;30.66;100.00;96413.09;5054858;28;20326;-82
2021/07/14 10:50:58;;;;;;;8.85;8.15;;;;;;;30.70;100.00;96416.03;5054728;28;20267;-81
2021/07/14 10:53:27;;;;;;;9.95;8.52;;;;;;;30.30;100.00;96420.66;5054481;28;20230;-82
2021/07/14 10:55:56;;;;;;;10.73;9.32;;;;;;;30.24;100.00;96411.75;5054830;28;20656;-82
2021/07/14 10:58:25;;;;;;;10.48;9.38;;;;;;;30.28;100.00;96414.72;5054445;28;20609;-82
2021/07/14 11:00:53;;;;;;;8.80;8.10;;;;;;;30.00;100.00;96417.00;5054552;28;20198;-82
2021/07/14 11:03:40;;;;;;;10.90;8.48;;;;;;;30.28;100.00;96414.72;5054275;28;20209;-82
2021/07/14 11:06:09;;;;;;;9.40;8.57;;;;;;;30.78;100.00;96412.75;5054692;28;20248;-81
2021/07/14 11:08:43;;;;;;;14.63;8.48;;;;;;;31.17;100.00;96415.34;5053995;28;20547;-81
2021/07/14 11:11:13;;;;;;;9.70;8.75;;;;;;;31.02;100.00;96419.03;5054415;28;20189;-82
2021/07/14 11:13:41;;;;;;;10.63;8.68;;;;;;;31.38;100.00;96418.72;5054054;28;20252;-82
2021/07/14 11:16:29;;;;;;;9.70;8.88;;;;;;;31.10;100.00;96414.09;5054295;28;20289;-81
2021/07/14 11:19:02;;;;;;;10.18;7.95;;;;;;;30.89;100.00;96416.97;5054063;28;20190;-81
2021/07/14 11:22:02;;;;;;;8.65;7.85;;;;;;;30.67;100.00;96411.19;5054223;28;20296;-81
2021/07/14 11:24:59;;;;;;;8.40;7.72;;;;;;;30.45;100.00;96407.00;5012389;28;20755;-82
2021/07/14 11:27:46;;;;;;;9.88;8.55;;;;;;;30.46;100.00;96410.53;5053293;28;20256;-82
2021/07/14 11:30:32;;;;;;;9.50;8.65;;;;;;;30.60;100.00;96402.56;5054006;28;20542;-82
2021/07/14 11:33:02;;;;;;;8.85;8.02;;;;;;;31.02;100.00;96393.81;5053812;28;20197;-82
2021/07/14 11:35:57;;;;;;;8.52;7.93;;;;;;;31.27;100.00;96404.41;5053903;28;20201;-82
2021/07/14 11:38:30;;;;;;;8.35;7.65;;;;;;;31.57;100.00;96405.19;5052303;28;20208;-81